createdAt,value
2019-06-27T00:00:49.591Z,15.6
2019-06-27T00:02:49.542Z,17.6
2019-06-27T00:04:49.983Z,17.6
2019-06-27T00:06:50.061Z,13.7
2019-06-27T00:08:50.078Z,13.2
2019-06-27T00:10:50.058Z,14.7
2019-06-27T00:12:50.061Z,15.7
2019-06-27T00:14:50.093Z,15.7
2019-06-27T00:16:50.176Z,15.7
2019-06-27T00:18:50.231Z,17.2
2019-06-27T00:20:50.242Z,15.9
2019-06-27T00:22:50.329Z,15.9
2019-06-27T00:24:50.374Z,15.3
2019-06-27T00:26:56.894Z,14.6
2019-06-27T00:28:49.725Z,16.0
2019-06-27T00:30:49.738Z,15.2
2019-06-27T00:32:49.721Z,15.0
2019-06-27T00:34:50.078Z,15.0
2019-06-27T00:36:50.105Z,14.9
2019-06-27T00:38:50.160Z,13.8
2019-06-27T00:40:50.138Z,15.4
2019-06-27T00:42:50.249Z,15.4
2019-06-27T00:44:50.236Z,16.9
2019-06-27T00:46:50.354Z,13.3
2019-06-27T00:48:50.381Z,16.0
2019-06-27T00:50:49.483Z,15.8
2019-06-27T00:52:49.450Z,15.8
2019-06-27T00:54:50.426Z,15.6
2019-06-27T00:56:49.652Z,13.0
2019-06-27T00:58:49.656Z,12.9
2019-06-27T01:00:49.731Z,15.2
2019-06-27T01:02:49.665Z,15.2
2019-06-27T01:04:50.005Z,16.5
2019-06-27T01:06:50.296Z,14.1
2019-06-27T01:08:50.417Z,15.2
2019-06-27T01:10:50.383Z,14.2
2019-06-27T01:12:50.394Z,14.2
2019-06-27T01:14:49.473Z,18.2
2019-06-27T01:16:49.723Z,16.0
2019-06-27T01:18:49.766Z,17.6
2019-06-27T01:20:50.075Z,17.6
2019-06-27T01:22:50.216Z,17.2
2019-06-27T01:24:50.285Z,16.5
2019-06-27T01:26:49.658Z,13.5
2019-06-27T01:28:49.748Z,14.9
2019-06-27T01:30:49.750Z,44.4
2019-06-27T01:32:49.740Z,44.4
2019-06-27T01:34:49.994Z,17.0
2019-06-27T01:36:50.112Z,14.2
2019-06-27T01:38:50.207Z,15.3
2019-06-27T01:40:50.222Z,16.6
2019-06-27T01:42:50.141Z,16.6
2019-06-27T01:44:50.142Z,22.8
2019-06-27T01:46:50.204Z,13.8
2019-06-27T01:48:50.191Z,29.9
2019-06-27T01:50:50.281Z,29.9
2019-06-27T01:52:50.258Z,14.9
2019-06-27T01:54:50.349Z,14.8
2019-06-27T01:56:49.485Z,14.6
2019-06-27T01:58:49.533Z,14.6
2019-06-27T02:00:49.569Z,15.4
2019-06-27T02:02:49.744Z,16.3
2019-06-27T02:04:50.021Z,16.1
2019-06-27T02:06:50.272Z,16.3
2019-06-27T02:08:49.813Z,15.5
2019-06-27T02:10:49.824Z,15.5
2019-06-27T02:12:49.905Z,15.6
2019-06-27T02:14:50.066Z,15.4
2019-06-27T02:16:50.106Z,16.1
2019-06-27T02:18:50.143Z,16.1
2019-06-27T02:20:50.151Z,16.4
2019-06-27T02:22:50.147Z,15.4
2019-06-27T02:24:50.180Z,18.0
2019-06-27T02:26:50.272Z,16.2
2019-06-27T02:28:50.269Z,16.2
2019-06-27T02:30:50.206Z,16.2
2019-06-27T02:32:50.208Z,15.8
2019-06-27T02:34:49.629Z,16.1
2019-06-27T02:36:49.727Z,16.0
2019-06-27T02:38:49.752Z,16.0
2019-06-27T02:40:49.773Z,15.2
2019-06-27T02:42:49.839Z,15.3
2019-06-27T02:44:49.900Z,15.8
2019-06-27T02:46:50.051Z,16.3
2019-06-27T02:48:50.080Z,16.3
2019-06-27T02:50:50.109Z,15.7
2019-06-27T02:52:50.179Z,15.8
2019-06-27T02:54:50.238Z,18.0
2019-06-27T02:56:50.385Z,16.8
2019-06-27T02:58:50.397Z,16.8
2019-06-27T03:00:49.457Z,18.2
2019-06-27T03:02:50.416Z,16.1
2019-06-27T03:04:49.726Z,16.8
2019-06-27T03:06:50.042Z,17.5
2019-06-27T03:08:50.186Z,17.5
2019-06-27T03:10:50.248Z,17.8
2019-06-27T03:12:50.300Z,16.9
2019-06-27T03:14:50.338Z,17.6
2019-06-27T03:16:50.398Z,17.6
2019-06-27T03:18:50.443Z,16.9
2019-06-27T03:20:49.515Z,18.3
2019-06-27T03:22:49.691Z,16.9
2019-06-27T03:24:49.730Z,18.9
2019-06-27T03:26:49.860Z,18.9
2019-06-27T03:28:52.457Z,17.0
2019-06-27T03:30:50.324Z,17.0
2019-06-27T03:32:50.367Z,17.0
2019-06-27T03:34:49.908Z,16.9
2019-06-27T03:36:50.191Z,16.9
2019-06-27T03:38:50.332Z,17.2
2019-06-27T03:40:50.372Z,16.7
2019-06-27T03:42:50.339Z,16.9
2019-06-27T03:44:50.391Z,18.6
2019-06-27T03:46:49.596Z,18.6
2019-06-27T03:48:49.619Z,16.8
2019-06-27T03:50:49.592Z,17.3
2019-06-27T03:52:49.732Z,17.0
2019-06-27T03:54:49.755Z,17.0
2019-06-27T03:56:49.893Z,16.7
2019-06-27T03:59:06.333Z,16.9
2019-06-27T04:00:49.777Z,16.9
2019-06-27T04:02:49.862Z,16.9
2019-06-27T04:04:50.078Z,17.1
2019-06-27T04:06:50.251Z,17.2
2019-06-27T04:08:50.338Z,16.5
2019-06-27T04:10:49.534Z,16.8
2019-06-27T04:12:49.509Z,17.2
2019-06-27T04:14:49.732Z,17.2
2019-06-27T04:16:49.895Z,17.4
2019-06-27T04:18:50.014Z,17.5
2019-06-27T04:20:50.007Z,17.9
2019-06-27T04:22:50.054Z,17.5
2019-06-27T04:24:50.020Z,17.5
2019-06-27T04:26:50.245Z,17.5
2019-06-27T04:28:50.209Z,16.8
2019-06-27T04:30:50.329Z,15.5
2019-06-27T04:32:50.424Z,15.7
2019-06-27T04:34:49.562Z,15.7
2019-06-27T04:36:49.726Z,15.6
2019-06-27T04:38:49.748Z,14.4
2019-06-27T04:40:49.783Z,14.0
2019-06-27T04:42:49.805Z,13.5
2019-06-27T04:44:49.802Z,13.5
2019-06-27T04:46:49.935Z,13.0
2019-06-27T04:48:50.080Z,12.8
2019-06-27T04:50:50.142Z,16.3
2019-06-27T04:52:50.381Z,16.3
2019-06-27T04:54:50.411Z,12.6
2019-06-27T04:56:49.685Z,14.8
2019-06-27T04:58:49.718Z,12.9
2019-06-27T05:00:49.736Z,11.7
2019-06-27T05:02:49.771Z,11.7
2019-06-27T05:04:50.190Z,14.9
2019-06-27T05:06:49.518Z,11.7
2019-06-27T05:08:49.523Z,11.7
2019-06-27T05:10:49.612Z,15.7
2019-06-27T05:12:49.607Z,15.7
2019-06-27T05:14:49.687Z,11.0
2019-06-27T05:16:49.987Z,10.6
2019-06-27T05:18:50.080Z,10.5
2019-06-27T05:20:50.110Z,10.5
2019-06-27T05:22:50.031Z,11.7
2019-06-27T05:24:50.046Z,11.6
2019-06-27T05:26:50.149Z,11.1
2019-06-27T05:28:50.214Z,10.5
2019-06-27T05:30:51.459Z,10.5
2019-06-27T05:32:49.817Z,11.3
2019-06-27T05:34:50.122Z,11.9
2019-06-27T05:36:49.692Z,11.5
2019-06-27T05:38:49.765Z,14.5
2019-06-27T05:40:49.748Z,12.9
2019-06-27T05:42:49.779Z,12.9
2019-06-27T05:44:49.715Z,11.8
2019-06-27T05:46:49.914Z,9.9
2019-06-27T05:48:49.952Z,12.4
2019-06-27T05:50:49.966Z,10.3
2019-06-27T05:52:49.985Z,10.3
2019-06-27T05:54:50.062Z,10.3
2019-06-27T05:56:50.176Z,14.2
2019-06-27T05:58:51.988Z,10.7
2019-06-27T06:00:50.379Z,10.7
2019-06-27T06:02:50.374Z,9.4
2019-06-27T06:04:49.794Z,9.2
2019-06-27T06:06:50.009Z,8.8
2019-06-27T06:08:50.031Z,10.3
2019-06-27T06:10:50.029Z,10.3
2019-06-27T06:12:50.030Z,8.8
2019-06-27T06:14:50.054Z,9.1
2019-06-27T06:16:50.205Z,8.0
2019-06-27T06:18:50.215Z,9.8
2019-06-27T06:20:50.157Z,9.8
2019-06-27T06:22:50.166Z,7.8
2019-06-27T06:24:50.180Z,8.0
2019-06-27T06:26:50.403Z,10.0
2019-06-27T06:28:50.384Z,6.8
2019-06-27T06:30:50.416Z,6.8
2019-06-27T06:32:49.644Z,8.6
2019-06-27T06:34:49.958Z,7.2
2019-06-27T06:36:50.080Z,7.8
2019-06-27T06:38:50.138Z,7.8
2019-06-27T06:40:50.215Z,8.1
2019-06-27T06:42:50.312Z,10.8
2019-06-27T06:44:49.563Z,8.2
2019-06-27T06:46:49.698Z,11.3
2019-06-27T06:48:49.745Z,11.3
2019-06-27T06:50:49.757Z,11.6
2019-06-27T06:52:49.760Z,8.7
2019-06-27T06:54:49.783Z,24.7
2019-06-27T06:56:49.970Z,7.5
2019-06-27T06:58:50.054Z,7.5
2019-06-27T07:01:00.661Z,8.5
2019-06-27T07:02:50.439Z,8.3
2019-06-27T07:04:49.991Z,8.8
2019-06-27T07:06:50.117Z,10.7
2019-06-27T07:08:50.198Z,10.7
2019-06-27T07:10:50.164Z,12.1
2019-06-27T07:12:50.132Z,11.9
2019-06-27T07:14:50.415Z,13.1
2019-06-27T07:16:49.543Z,16.6
2019-06-27T07:18:49.612Z,16.6
2019-06-27T07:20:49.636Z,8.8
2019-06-27T07:22:49.558Z,8.7
2019-06-27T07:24:49.509Z,10.0
2019-06-27T07:26:49.841Z,10.2
2019-06-27T07:28:49.964Z,10.2
2019-06-27T07:30:49.928Z,8.3
2019-06-27T07:32:49.887Z,10.4
2019-06-27T07:34:50.228Z,11.0
2019-06-27T07:36:50.252Z,11.0
2019-06-27T07:38:50.214Z,8.6
2019-06-27T07:40:50.230Z,8.0
2019-06-27T07:42:50.223Z,9.1
2019-06-27T07:44:50.277Z,11.3
2019-06-27T07:46:50.370Z,11.3
2019-06-27T07:48:49.484Z,12.5
2019-06-27T07:50:50.396Z,12.1
2019-06-27T07:52:50.313Z,9.1
2019-06-27T07:54:50.321Z,10.1
2019-06-27T07:56:50.425Z,10.1
2019-06-27T07:58:49.549Z,8.6
2019-06-27T08:00:49.511Z,9.0
2019-06-27T08:02:50.408Z,9.8
2019-06-27T08:04:49.760Z,10.5
2019-06-27T08:06:49.988Z,10.5
2019-06-27T08:08:49.987Z,11.9
2019-06-27T08:10:50.173Z,9.8
2019-06-27T08:12:50.078Z,9.0
2019-06-27T08:14:50.083Z,9.0
2019-06-27T08:16:50.259Z,8.9
2019-06-27T08:18:50.261Z,11.9
2019-06-27T08:20:50.234Z,9.5
2019-06-27T08:22:50.221Z,13.1
2019-06-27T08:24:50.168Z,13.1
2019-06-27T08:26:50.373Z,10.0
2019-06-27T08:28:50.297Z,9.3
2019-06-27T08:30:49.487Z,10.1
2019-06-27T08:32:49.497Z,9.8
2019-06-27T08:34:49.690Z,9.8
2019-06-27T08:36:49.902Z,18.7
2019-06-27T08:38:49.997Z,18.7
2019-06-27T08:40:49.998Z,18.7
2019-06-27T08:42:49.982Z,18.7
2019-06-27T08:44:49.987Z,9.3
2019-06-27T08:46:50.076Z,9.2
2019-06-27T08:48:50.058Z,9.1
2019-06-27T08:50:50.029Z,8.9
2019-06-27T08:52:50.029Z,11.7
2019-06-27T08:54:49.993Z,11.7
2019-06-27T08:56:50.087Z,9.8
2019-06-27T08:58:50.038Z,14.4
2019-06-27T09:00:50.081Z,8.1
2019-06-27T09:02:50.093Z,8.1
2019-06-27T09:04:50.294Z,8.1
2019-06-27T09:06:50.317Z,9.7
2019-06-27T09:08:50.331Z,8.9
2019-06-27T09:10:50.424Z,9.9
2019-06-27T09:12:49.512Z,9.9
2019-06-27T09:14:50.428Z,11.6
2019-06-27T09:16:49.538Z,8.4
2019-06-27T09:18:49.619Z,7.6
2019-06-27T09:20:49.534Z,9.4
2019-06-27T09:22:49.557Z,9.4
2019-06-27T09:24:49.514Z,8.6
2019-06-27T09:26:49.721Z,9.1
2019-06-27T09:28:49.692Z,13.0
2019-06-27T09:30:49.892Z,14.0
2019-06-27T09:32:49.899Z,14.0
2019-06-27T09:34:50.202Z,9.6
2019-06-27T09:36:50.340Z,20.7
2019-06-27T09:38:50.334Z,20.1
2019-06-27T09:40:50.283Z,28.1
2019-06-27T09:42:50.286Z,28.1
2019-06-27T09:44:50.350Z,8.3
2019-06-27T09:46:49.559Z,12.6
2019-06-27T09:48:49.537Z,9.7
2019-06-27T09:50:49.500Z,9.7
2019-06-27T09:52:49.464Z,6.8
2019-06-27T09:54:49.452Z,6.1
2019-06-27T09:56:49.529Z,6.6
2019-06-27T09:58:49.464Z,5.7
2019-06-27T10:00:49.492Z,5.7
2019-06-27T10:02:49.731Z,5.3
2019-06-27T10:04:50.042Z,5.9
2019-06-27T10:06:50.134Z,4.5
2019-06-27T10:08:50.085Z,6.9
2019-06-27T10:10:50.189Z,6.9
2019-06-27T10:12:50.105Z,4.6
2019-06-27T10:14:50.116Z,5.0
2019-06-27T10:16:50.126Z,14.0
2019-06-27T10:18:50.290Z,6.0
2019-06-27T10:20:50.299Z,6.0
2019-06-27T10:22:50.303Z,5.1
2019-06-27T10:24:50.311Z,6.3
2019-06-27T10:26:50.403Z,6.4
2019-06-27T10:28:50.392Z,6.4
2019-06-27T10:30:50.415Z,5.1
2019-06-27T10:32:58.768Z,4.1
2019-06-27T10:34:49.708Z,4.6
2019-06-27T10:36:49.844Z,4.3
2019-06-27T10:38:49.877Z,4.3
2019-06-27T10:40:49.916Z,9.7
2019-06-27T10:42:49.874Z,8.7
2019-06-27T10:44:49.894Z,8.6
2019-06-27T10:46:50.044Z,9.2
2019-06-27T10:48:49.988Z,9.2
2019-06-27T10:50:49.981Z,6.7
2019-06-27T10:52:49.959Z,14.2
2019-06-27T10:54:49.994Z,6.3
2019-06-27T10:56:50.050Z,6.3
2019-06-27T10:58:50.056Z,8.1
2019-06-27T11:00:50.035Z,9.4
2019-06-27T11:02:49.996Z,10.2
2019-06-27T11:04:50.428Z,8.7
2019-06-27T11:06:50.414Z,5.4
2019-06-27T11:08:50.408Z,5.4
2019-06-27T11:10:50.391Z,41.4
2019-06-27T11:12:50.356Z,5.6
2019-06-27T11:14:58.889Z,5.6
2019-06-27T11:16:50.044Z,5.8
2019-06-27T11:18:50.008Z,5.8
2019-06-27T11:20:50.037Z,6.0
2019-06-27T11:22:50.080Z,5.7
2019-06-27T11:24:50.066Z,6.9
2019-06-27T11:26:50.227Z,5.9
2019-06-27T11:28:50.421Z,5.9
2019-06-27T11:30:49.525Z,5.6
2019-06-27T11:32:49.471Z,6.7
2019-06-27T11:34:49.705Z,5.8
2019-06-27T11:36:49.853Z,5.8
2019-06-27T11:38:49.804Z,5.5
2019-06-27T11:40:49.810Z,5.6
2019-06-27T11:42:49.750Z,5.1
2019-06-27T11:44:49.711Z,5.4
2019-06-27T11:46:49.868Z,5.4
2019-06-27T11:48:49.885Z,6.5
2019-06-27T11:50:49.964Z,5.3
2019-06-27T11:52:50.205Z,5.1
2019-06-27T11:54:50.135Z,5.1
2019-06-27T11:56:50.180Z,10.3
2019-06-27T11:58:50.162Z,16.6
2019-06-27T12:00:50.126Z,7.9
2019-06-27T12:02:50.099Z,5.1
2019-06-27T12:04:49.495Z,5.1
2019-06-27T12:06:49.596Z,6.2
2019-06-27T12:08:49.563Z,6.9
2019-06-27T12:10:49.624Z,4.6
2019-06-27T12:12:49.635Z,6.5
2019-06-27T12:14:49.665Z,6.5
2019-06-27T12:16:49.711Z,3.4
2019-06-27T12:18:49.738Z,13.1
2019-06-27T12:20:49.688Z,6.9
2019-06-27T12:22:49.874Z,3.4
2019-06-27T12:24:49.871Z,3.4
2019-06-27T12:26:49.915Z,3.2
2019-06-27T12:28:49.865Z,2.9
2019-06-27T12:30:49.916Z,2.8
2019-06-27T12:32:52.073Z,7.0
2019-06-27T12:34:50.330Z,2.7
2019-06-27T12:36:50.290Z,2.7
2019-06-27T12:38:50.237Z,2.3
2019-06-27T12:40:50.307Z,2.2
2019-06-27T12:42:50.266Z,2.2
2019-06-27T12:44:50.307Z,2.3
2019-06-27T12:46:49.444Z,3.0
2019-06-27T12:48:50.385Z,2.4
2019-06-27T12:50:50.423Z,4.0
2019-06-27T12:52:50.398Z,3.0
2019-06-27T12:54:50.314Z,3.0
2019-06-27T12:56:50.415Z,7.8
2019-06-27T12:58:50.333Z,2.0
2019-06-27T13:00:50.283Z,3.4
2019-06-27T13:02:50.276Z,3.4
2019-06-27T13:04:49.665Z,3.4
2019-06-27T13:06:49.900Z,15.1
2019-06-27T13:08:49.921Z,2.6
2019-06-27T13:10:49.959Z,3.7
2019-06-27T13:12:50.094Z,3.7
2019-06-27T13:14:50.173Z,3.8
2019-06-27T13:16:50.321Z,2.0
2019-06-27T13:18:50.201Z,2.3
2019-06-27T13:20:57.636Z,2.9
2019-06-27T13:22:49.793Z,2.9
2019-06-27T13:24:49.873Z,1.6
2019-06-27T13:26:50.009Z,1.9
2019-06-27T13:28:50.072Z,8.3
2019-06-27T13:30:50.024Z,2.0
2019-06-27T13:32:50.004Z,2.0
2019-06-27T13:34:50.307Z,4.7
2019-06-27T13:36:50.325Z,2.1
2019-06-27T13:38:50.402Z,3.0
2019-06-27T13:40:50.390Z,6.6
2019-06-27T13:42:50.419Z,6.6
2019-06-27T13:44:49.555Z,1.7
2019-06-27T13:46:49.599Z,3.3
2019-06-27T13:48:49.600Z,3.1
2019-06-27T13:50:49.561Z,4.4
2019-06-27T13:52:49.620Z,4.4
2019-06-27T13:54:49.598Z,41.0
2019-06-27T13:56:49.632Z,9.4
2019-06-27T13:58:49.616Z,14.2
2019-06-27T14:00:49.660Z,4.3
2019-06-27T14:02:49.835Z,4.3
2019-06-27T14:04:56.868Z,14.3
2019-06-27T14:06:50.111Z,6.5
2019-06-27T14:08:50.132Z,1.6
2019-06-27T14:10:51.154Z,1.6
2019-06-27T14:12:50.275Z,1.4
2019-06-27T14:16:49.542Z,2.7
2019-06-27T14:18:49.451Z,1.1
2019-06-27T14:20:49.500Z,1.1
2019-06-27T14:22:49.528Z,3.6
2019-06-27T14:24:49.499Z,2.2
2019-06-27T14:26:49.651Z,2.5
2019-06-27T14:28:49.618Z,2.3
2019-06-27T14:30:49.618Z,2.3
2019-06-27T14:32:53.053Z,1.3
2019-06-27T14:34:50.055Z,1.5
2019-06-27T14:36:52.096Z,4.0
2019-06-27T14:38:49.471Z,2.4
2019-06-27T14:40:49.543Z,2.4
2019-06-27T14:42:49.469Z,1.2
2019-06-27T14:44:49.629Z,1.3
2019-06-27T14:46:49.672Z,8.6
2019-06-27T14:48:49.639Z,3.5
2019-06-27T14:50:49.652Z,3.5
2019-06-27T14:52:49.600Z,1.7
2019-06-27T14:54:49.573Z,1.8
2019-06-27T14:56:49.750Z,2.2
2019-06-27T14:58:49.775Z,10.0
2019-06-27T15:00:49.765Z,10.0
2019-06-27T15:02:49.744Z,1.2
2019-06-27T15:04:50.139Z,1.6
2019-06-27T15:06:50.344Z,3.5
2019-06-27T15:08:49.748Z,3.5
2019-06-27T15:10:49.712Z,3.8
2019-06-27T15:12:56.783Z,4.1
2019-06-27T15:14:50.692Z,2.3
2019-06-27T15:16:50.016Z,2.3
2019-06-27T15:18:50.057Z,2.6
2019-06-27T15:20:50.055Z,2.8
2019-06-27T15:22:50.085Z,1.5
2019-06-27T15:24:50.117Z,1.5
2019-06-27T15:26:50.384Z,1.4
2019-06-27T15:28:50.352Z,1.4
2019-06-27T15:30:50.387Z,1.5
2019-06-27T15:32:50.349Z,3.1
2019-06-27T15:34:49.720Z,2.8
2019-06-27T15:36:49.775Z,2.0
2019-06-27T15:38:49.838Z,2.0
2019-06-27T15:40:49.874Z,1.8
2019-06-27T15:42:49.901Z,2.5
2019-06-27T15:44:49.848Z,2.5
2019-06-27T15:46:51.697Z,2.6
2019-06-27T15:48:50.387Z,1.3
2019-06-27T15:50:50.458Z,2.9
2019-06-27T15:52:49.595Z,4.8
2019-06-27T15:54:49.559Z,2.3
2019-06-27T15:56:49.630Z,2.3
2019-06-27T15:58:49.582Z,1.3
2019-06-27T16:00:49.639Z,6.3
2019-06-27T16:02:49.740Z,3.4
2019-06-27T16:04:49.968Z,3.2
2019-06-27T16:06:50.032Z,3.2
2019-06-27T16:08:50.092Z,1.5
2019-06-27T16:10:50.278Z,1.3
2019-06-27T16:12:50.267Z,1.4
2019-06-27T16:14:50.363Z,2.8
2019-06-27T16:16:49.482Z,2.8
2019-06-27T16:18:50.435Z,9.1
2019-06-27T16:20:49.474Z,8.3
2019-06-27T16:22:49.498Z,1.4
2019-06-27T16:24:49.470Z,1.4
2019-06-27T16:26:49.725Z,2.2
2019-06-27T16:28:49.701Z,2.5
2019-06-27T16:30:49.656Z,1.5
2019-06-27T16:32:49.754Z,1.5
2019-06-27T16:34:50.005Z,1.5
2019-06-27T16:36:50.149Z,2.9
2019-06-27T16:38:50.128Z,1.8
2019-06-27T16:40:50.166Z,6.7
2019-06-27T16:42:50.144Z,2.2
2019-06-27T16:44:50.178Z,2.2
2019-06-27T16:46:50.407Z,1.5
2019-06-27T16:48:50.401Z,2.1
2019-06-27T16:50:49.454Z,1.5
2019-06-27T16:52:50.427Z,1.6
2019-06-27T16:54:49.455Z,1.6
2019-06-27T16:56:49.507Z,1.5
2019-06-27T16:58:49.646Z,1.5
2019-06-27T17:00:49.673Z,2.7
2019-06-27T17:02:49.707Z,2.7
2019-06-27T17:04:49.980Z,2.7
2019-06-27T17:06:50.147Z,1.6
2019-06-27T17:08:50.292Z,1.9
2019-06-27T17:10:50.248Z,4.2
2019-06-27T17:12:50.228Z,4.2
2019-06-27T17:14:50.275Z,2.4
2019-06-27T17:16:50.389Z,1.6
2019-06-27T17:18:50.437Z,1.5
2019-06-27T17:20:49.440Z,5.5
2019-06-27T17:22:50.433Z,5.5
2019-06-27T17:24:50.362Z,1.6
2019-06-27T17:26:49.449Z,1.6
2019-06-27T17:28:49.457Z,1.8
2019-06-27T17:30:49.428Z,2.0
2019-06-27T17:32:50.396Z,3.3
2019-06-27T17:34:49.818Z,3.3
2019-06-27T17:36:57.309Z,3.2
2019-06-27T17:38:50.328Z,2.4
2019-06-27T17:40:50.315Z,2.5
2019-06-27T17:42:50.263Z,2.5
2019-06-27T17:44:50.244Z,2.6
2019-06-27T17:46:49.444Z,1.7
2019-06-27T17:48:50.406Z,1.6
2019-06-27T17:50:50.435Z,1.8
2019-06-27T17:52:50.361Z,1.8
2019-06-27T17:54:50.335Z,1.6
2019-06-27T17:56:49.469Z,2.2
2019-06-27T17:58:49.473Z,3.0
2019-06-27T18:00:50.429Z,4.3
2019-06-27T18:02:49.579Z,4.3
2019-06-27T18:04:49.979Z,2.4
2019-06-27T18:06:50.119Z,1.8
2019-06-27T18:08:50.170Z,3.1
2019-06-27T18:10:50.193Z,3.1
2019-06-27T18:12:50.184Z,1.6
2019-06-27T18:14:50.176Z,4.1
2019-06-27T18:16:50.188Z,4.6
2019-06-27T18:18:50.172Z,2.1
2019-06-27T18:20:50.157Z,2.1
2019-06-27T18:22:50.203Z,3.9
2019-06-27T18:24:50.245Z,4.5
2019-06-27T18:26:50.300Z,4.5
2019-06-27T18:28:50.380Z,3.7
2019-06-27T18:30:50.329Z,3.7
2019-06-27T18:32:50.298Z,1.6
2019-06-27T18:34:49.607Z,2.0
2019-06-27T18:36:49.755Z,1.6
2019-06-27T18:38:49.863Z,1.7
2019-06-27T18:40:49.919Z,1.7
2019-06-27T18:42:49.912Z,2.2
2019-06-27T18:44:50.018Z,2.1
2019-06-27T18:46:50.149Z,4.8
2019-06-27T18:48:51.972Z,2.2
2019-06-27T18:50:50.284Z,2.2
2019-06-27T18:52:50.416Z,1.8
2019-06-27T18:54:50.429Z,5.7
2019-06-27T18:56:49.605Z,5.7
2019-06-27T18:58:49.561Z,2.2
2019-06-27T19:00:49.565Z,2.9
2019-06-27T19:02:49.659Z,2.8
2019-06-27T19:04:49.867Z,2.1
2019-06-27T19:06:50.047Z,2.4
2019-06-27T19:08:50.014Z,2.4
2019-06-27T19:10:49.963Z,1.7
2019-06-27T19:12:49.952Z,1.8
2019-06-27T19:14:49.981Z,4.6
2019-06-27T19:16:50.075Z,4.6
2019-06-27T19:18:50.034Z,2.4
2019-06-27T19:20:49.950Z,2.1
2019-06-27T19:22:49.866Z,1.7
2019-06-27T19:24:49.860Z,2.2
2019-06-27T19:26:50.112Z,2.2
2019-06-27T19:28:50.378Z,2.7
2019-06-27T19:30:50.338Z,3.0
2019-06-27T19:32:50.347Z,1.9
2019-06-27T19:34:49.671Z,3.2
2019-06-27T19:36:49.730Z,3.0
2019-06-27T19:38:49.728Z,3.0
2019-06-27T19:40:49.756Z,2.8
2019-06-27T19:42:49.837Z,3.4
2019-06-27T19:44:49.818Z,2.4
2019-06-27T19:46:49.965Z,2.9
2019-06-27T19:48:49.954Z,2.9
2019-06-27T19:50:49.932Z,2.1
2019-06-27T19:52:50.067Z,2.7
2019-06-27T19:54:50.035Z,2.1
2019-06-27T19:56:50.072Z,2.1
2019-06-27T19:58:50.039Z,2.9
2019-06-27T20:00:50.094Z,2.3
2019-06-27T20:02:50.073Z,2.9
2019-06-27T20:04:50.380Z,2.9
2019-06-27T20:06:50.422Z,2.9
2019-06-27T20:08:50.417Z,1.9
2019-06-27T20:10:49.458Z,3.7
2019-06-27T20:12:49.487Z,2.0
2019-06-27T20:14:49.501Z,2.0
2019-06-27T20:16:49.550Z,3.1
2019-06-27T20:18:49.617Z,1.9
2019-06-27T20:20:49.652Z,2.1
2019-06-27T20:22:49.658Z,2.2
2019-06-27T20:24:49.638Z,2.2
2019-06-27T20:26:49.688Z,2.2
2019-06-27T20:28:49.773Z,1.9
2019-06-27T20:30:49.781Z,1.8
2019-06-27T20:32:49.752Z,4.0
2019-06-27T20:34:50.134Z,4.0
2019-06-27T20:36:50.335Z,3.8
2019-06-27T20:38:50.330Z,2.5
2019-06-27T20:40:50.314Z,1.9
2019-06-27T20:42:50.266Z,3.1
2019-06-27T20:44:50.211Z,3.1
2019-06-27T20:46:50.322Z,1.9
2019-06-27T20:48:53.659Z,1.9
2019-06-27T20:50:50.095Z,3.0
2019-06-27T20:52:50.147Z,3.5
2019-06-27T20:54:50.142Z,3.5
2019-06-27T20:56:50.346Z,1.9
2019-06-27T20:58:50.304Z,2.5
2019-06-27T21:00:50.324Z,2.9
2019-06-27T21:02:50.246Z,2.8
2019-06-27T21:04:49.575Z,2.8
2019-06-27T21:06:49.644Z,2.8
2019-06-27T21:08:51.445Z,2.5
2019-06-27T21:10:50.053Z,2.6
2019-06-27T21:12:50.056Z,2.6
2019-06-27T21:14:50.099Z,4.5
2019-06-27T21:16:49.427Z,5.9
2019-06-27T21:18:50.382Z,3.3
2019-06-27T21:20:50.403Z,3.3
2019-06-27T21:22:50.372Z,2.6
2019-06-27T21:24:50.388Z,2.6
2019-06-27T21:26:49.490Z,3.6
2019-06-27T21:28:49.496Z,4.5
2019-06-27T21:30:49.493Z,2.4
2019-06-27T21:32:49.442Z,2.4
2019-06-27T21:34:49.762Z,2.2
2019-06-27T21:36:49.885Z,2.3
2019-06-27T21:38:49.874Z,3.9
2019-06-27T21:40:50.458Z,5.9
2019-06-27T21:42:50.417Z,5.9
2019-06-27T21:44:49.433Z,3.7
2019-06-27T21:46:49.547Z,3.8
2019-06-27T21:48:49.491Z,2.4
2019-06-27T21:50:49.676Z,2.4
2019-06-27T21:52:49.766Z,3.9
2019-06-27T21:54:49.712Z,2.2
2019-06-27T21:56:49.869Z,3.0
2019-06-27T21:58:49.975Z,3.8
2019-06-27T22:00:49.893Z,3.8
2019-06-27T22:02:49.939Z,3.3
2019-06-27T22:04:50.374Z,2.1
2019-06-27T22:06:49.498Z,4.5
2019-06-27T22:08:49.536Z,3.0
2019-06-27T22:10:49.719Z,4.9
2019-06-27T22:12:49.822Z,4.9
2019-06-27T22:14:49.900Z,2.5
2019-06-27T22:16:49.995Z,7.5
2019-06-27T22:18:49.967Z,3.8
2019-06-27T22:20:50.036Z,3.8
2019-06-27T22:22:50.031Z,2.7
2019-06-27T22:24:50.075Z,3.9
2019-06-27T22:26:50.179Z,2.2
2019-06-27T22:28:50.167Z,2.7
2019-06-27T22:30:50.196Z,2.7
2019-06-27T22:32:50.165Z,1.9
2019-06-27T22:34:49.512Z,2.4
2019-06-27T22:36:49.643Z,3.1
2019-06-27T22:38:49.657Z,2.2
2019-06-27T22:40:49.640Z,2.2
2019-06-27T22:42:49.673Z,3.5
2019-06-27T22:44:49.660Z,4.1
2019-06-27T22:46:49.729Z,2.6
2019-06-27T22:48:49.810Z,2.8
2019-06-27T22:50:49.783Z,2.8
2019-06-27T22:52:49.806Z,2.2
2019-06-27T22:54:49.537Z,4.4
2019-06-27T22:56:49.752Z,2.5
2019-06-27T22:58:49.808Z,2.5
2019-06-27T23:00:49.802Z,4.8
2019-06-27T23:02:49.789Z,4.4
2019-06-27T23:04:50.097Z,2.5
2019-06-27T23:06:50.247Z,2.3
2019-06-27T23:08:50.192Z,2.3
2019-06-27T23:10:50.160Z,3.7
2019-06-27T23:12:50.325Z,2.5
2019-06-27T23:14:50.610Z,2.8
2019-06-27T23:16:49.982Z,4.5
2019-06-27T23:18:50.029Z,4.5
2019-06-27T23:20:50.022Z,3.4
2019-06-27T23:22:50.065Z,4.6
2019-06-27T23:24:50.061Z,4.7
2019-06-27T23:26:50.292Z,3.4
2019-06-27T23:28:50.324Z,3.4
2019-06-27T23:30:50.296Z,4.7
2019-06-27T23:32:50.253Z,3.3
2019-06-27T23:34:49.660Z,3.4
2019-06-27T23:36:49.867Z,3.0
2019-06-27T23:38:49.984Z,3.0
2019-06-27T23:40:49.938Z,3.4
2019-06-27T23:42:49.917Z,3.7
2019-06-27T23:44:49.991Z,6.7
2019-06-27T23:46:50.157Z,6.7
2019-06-27T23:48:50.175Z,3.9
2019-06-27T23:50:50.181Z,3.5
2019-06-27T23:52:50.119Z,3.5
2019-06-27T23:54:50.135Z,3.2
2019-06-27T23:56:50.288Z,3.9
2019-06-27T23:58:50.430Z,3.9
